createdAt,value
2023-01-19T00:00:10.974Z,6.43
2023-01-19T00:02:39.048Z,6.72
2023-01-19T00:05:06.443Z,6.72
2023-01-19T00:07:34.782Z,6.32
2023-01-19T00:10:02.013Z,6.53
2023-01-19T00:12:29.322Z,5.40
2023-01-19T00:14:56.661Z,5.38
2023-01-19T00:17:24.056Z,5.95
2023-01-19T00:19:51.331Z,5.88
2023-01-19T00:22:18.827Z,5.85
2023-01-19T00:24:46.257Z,6.30
2023-01-19T00:27:13.481Z,6.53
2023-01-19T00:29:40.832Z,5.28
2023-01-19T00:32:08.082Z,6.25
2023-01-19T00:34:39.754Z,7.35
2023-01-19T00:37:07.694Z,6.50
2023-01-19T00:39:35.086Z,6.30
2023-01-19T00:42:31.392Z,6.25
2023-01-19T00:44:58.834Z,5.60
2023-01-19T00:47:26.243Z,6.45
2023-01-19T00:49:53.465Z,5.20
2023-01-19T00:52:20.913Z,6.00
2023-01-19T00:54:48.231Z,6.15
2023-01-19T00:57:16.194Z,4.95
2023-01-19T00:59:43.680Z,6.03
2023-01-19T01:02:11.757Z,5.20
2023-01-19T01:04:39.209Z,5.53
2023-01-19T01:07:06.605Z,4.53
2023-01-19T01:09:33.845Z,3.80
2023-01-19T01:12:01.320Z,3.90
2023-01-19T01:14:29.006Z,3.60
2023-01-19T01:16:56.285Z,3.53
2023-01-19T01:19:23.611Z,3.00
2023-01-19T01:21:51.300Z,2.60
2023-01-19T01:24:18.944Z,2.50
2023-01-19T01:26:46.269Z,1.30
2023-01-19T01:29:13.720Z,0.80
2023-01-19T01:31:41.191Z,1.00
2023-01-19T01:34:08.931Z,1.10
2023-01-19T01:36:36.232Z,1.00
2023-01-19T01:39:04.016Z,0.70
2023-01-19T01:41:31.437Z,0.90
2023-01-19T01:44:00.199Z,1.10
2023-01-19T01:46:27.997Z,1.10
2023-01-19T01:48:55.364Z,0.90
2023-01-19T01:51:26.314Z,0.80
2023-01-19T01:53:59.906Z,0.80
2023-01-19T01:56:32.078Z,0.75
2023-01-19T01:59:00.404Z,0.63
2023-01-19T02:01:46.175Z,0.70
2023-01-19T02:04:13.434Z,0.60
2023-01-19T02:06:59.454Z,0.60
2023-01-19T02:09:47.312Z,0.55
2023-01-19T02:12:33.001Z,0.47
2023-01-19T02:15:00.375Z,0.60
2023-01-19T02:17:27.733Z,0.50
2023-01-19T02:19:55.207Z,0.47
2023-01-19T02:22:36.149Z,0.38
2023-01-19T02:25:06.735Z,0.35
2023-01-19T02:27:34.030Z,0.20
2023-01-19T02:30:04.880Z,0.30
2023-01-19T02:32:32.245Z,0.20
2023-01-19T02:34:59.538Z,0.30
2023-01-19T02:37:27.466Z,0.40
2023-01-19T02:39:57.302Z,0.20
2023-01-19T02:42:32.328Z,0.20
2023-01-19T02:45:00.021Z,0.30
2023-01-19T02:47:27.394Z,0.20
2023-01-19T02:49:58.216Z,0.30
2023-01-19T02:52:26.546Z,0.30
2023-01-19T02:54:59.938Z,0.20
2023-01-19T02:57:36.406Z,0.30
2023-01-19T03:00:03.859Z,0.40
2023-01-19T03:02:43.738Z,0.22
2023-01-19T03:05:20.522Z,0.20
2023-01-19T03:07:52.149Z,0.30
2023-01-19T03:10:29.691Z,0.40
2023-01-19T03:12:56.994Z,0.25
2023-01-19T03:15:27.215Z,0.20
2023-01-19T03:17:54.746Z,0.30
2023-01-19T03:20:24.948Z,0.30
2023-01-19T03:23:02.244Z,0.32
2023-01-19T03:25:32.723Z,0.45
2023-01-19T03:28:00.126Z,0.50
2023-01-19T03:30:29.881Z,0.47
2023-01-19T03:33:04.944Z,0.20
2023-01-19T03:35:34.500Z,0.22
2023-01-19T03:38:04.846Z,0.20
2023-01-19T03:40:33.513Z,0.30
2023-01-19T03:43:02.257Z,0.40
2023-01-19T03:45:30.926Z,0.20
2023-01-19T03:47:59.572Z,0.30
2023-01-19T03:50:30.725Z,0.25
2023-01-19T03:53:11.969Z,0.20
2023-01-19T03:55:40.872Z,0.20
2023-01-19T03:58:08.272Z,0.10
2023-01-19T04:00:36.992Z,0.20
2023-01-19T04:03:05.343Z,0.20
2023-01-19T04:05:32.772Z,0.20
2023-01-19T04:08:00.923Z,0.25
2023-01-19T04:10:28.139Z,0.20
2023-01-19T04:13:03.312Z,0.40
2023-01-19T04:15:31.287Z,0.50
2023-01-19T04:17:59.407Z,0.52
2023-01-19T04:20:28.187Z,0.38
2023-01-19T04:22:57.826Z,0.40
2023-01-19T04:25:25.264Z,0.60
2023-01-19T04:27:53.216Z,0.60
2023-01-19T04:30:20.758Z,0.55
2023-01-19T04:32:47.960Z,0.30
2023-01-19T04:35:15.319Z,0.30
2023-01-19T04:37:42.527Z,0.28
2023-01-19T04:40:10.129Z,0.55
2023-01-19T04:42:37.371Z,0.35
2023-01-19T04:45:04.930Z,0.80
2023-01-19T04:47:32.225Z,0.37
2023-01-19T04:49:59.588Z,0.35
2023-01-19T04:52:35.150Z,0.57
2023-01-19T04:55:02.884Z,0.30
2023-01-19T04:57:30.563Z,0.30
2023-01-19T04:59:58.571Z,0.50
2023-01-19T05:02:26.312Z,0.40
2023-01-19T05:04:53.897Z,0.45
2023-01-19T05:07:21.225Z,0.40
2023-01-19T05:09:48.394Z,0.40
2023-01-19T05:12:15.619Z,0.40
2023-01-19T05:14:43.479Z,0.30
2023-01-19T05:17:10.931Z,0.63
2023-01-19T05:19:38.277Z,0.60
2023-01-19T05:22:06.299Z,0.38
2023-01-19T05:24:33.620Z,0.60
2023-01-19T05:27:00.950Z,0.50
2023-01-19T05:29:28.172Z,0.70
2023-01-19T05:31:55.564Z,0.57
2023-01-19T05:34:22.829Z,0.63
2023-01-19T05:36:50.197Z,0.40
2023-01-19T05:39:17.487Z,0.40
2023-01-19T05:41:47.798Z,0.63
2023-01-19T05:44:15.131Z,0.80
2023-01-19T05:46:42.602Z,0.70
2023-01-19T05:49:10.138Z,0.50
2023-01-19T05:51:45.478Z,0.60
2023-01-19T05:54:14.979Z,0.75
2023-01-19T05:56:42.488Z,0.60
2023-01-19T05:59:10.609Z,0.75
2023-01-19T06:01:39.869Z,0.80
2023-01-19T06:04:07.645Z,0.82
2023-01-19T06:06:34.975Z,0.95
2023-01-19T06:09:02.333Z,1.38
2023-01-19T06:11:29.626Z,1.05
2023-01-19T06:13:56.962Z,1.13
2023-01-19T06:16:24.201Z,1.38
2023-01-19T06:18:51.580Z,1.40
2023-01-19T06:21:18.953Z,1.10
2023-01-19T06:23:46.146Z,0.95
2023-01-19T06:26:13.653Z,1.30
2023-01-19T06:28:40.867Z,0.90
2023-01-19T06:31:08.003Z,1.20
2023-01-19T06:33:35.357Z,1.08
2023-01-19T06:36:02.719Z,0.85
2023-01-19T06:38:30.105Z,0.90
2023-01-19T06:41:04.922Z,1.10
2023-01-19T06:43:32.614Z,1.23
2023-01-19T06:46:03.474Z,1.08
2023-01-19T06:48:30.941Z,1.20
2023-01-19T06:50:59.668Z,1.37
2023-01-19T06:53:28.539Z,1.20
2023-01-19T06:55:59.258Z,1.48
2023-01-19T06:58:26.808Z,1.75
2023-01-19T07:00:54.370Z,1.55
2023-01-19T07:03:23.114Z,1.67
2023-01-19T07:05:54.112Z,2.05
2023-01-19T07:08:21.463Z,1.55
2023-01-19T07:11:24.433Z,1.90
2023-01-19T07:13:36.866Z,1.90
2023-01-19T07:16:08.295Z,1.40
2023-01-19T07:18:36.184Z,1.10
2023-01-19T07:21:03.542Z,1.90
2023-01-19T07:23:30.851Z,1.30
2023-01-19T07:25:58.635Z,1.40
2023-01-19T07:28:25.982Z,1.43
2023-01-19T07:30:53.843Z,1.40
2023-01-19T07:33:26.182Z,1.42
2023-01-19T07:35:54.767Z,1.48
2023-01-19T07:38:22.111Z,1.73
2023-01-19T07:40:49.379Z,1.47
2023-01-19T07:43:16.921Z,1.80
2023-01-19T07:45:45.390Z,1.35
2023-01-19T07:48:12.756Z,2.38
2023-01-19T07:50:39.995Z,1.63
2023-01-19T07:53:08.223Z,1.73
2023-01-19T07:55:35.626Z,1.90
2023-01-19T07:58:06.732Z,1.75
2023-01-19T08:00:35.409Z,1.70
2023-01-19T08:03:04.103Z,2.40
2023-01-19T08:05:32.215Z,1.77
2023-01-19T08:08:00.482Z,1.45
2023-01-19T08:10:28.755Z,1.90
2023-01-19T08:12:56.729Z,1.77
2023-01-19T08:15:25.026Z,1.63
2023-01-19T08:18:02.472Z,1.50
2023-01-19T08:20:30.334Z,1.40
2023-01-19T08:23:01.415Z,1.60
2023-01-19T08:25:36.168Z,1.40
2023-01-19T08:28:04.593Z,1.70
2023-01-19T08:30:31.997Z,1.97
2023-01-19T08:33:04.372Z,1.92
2023-01-19T08:35:32.463Z,1.75
2023-01-19T08:38:01.794Z,1.15
2023-01-19T08:40:29.805Z,1.20
2023-01-19T08:43:04.939Z,0.90
2023-01-19T08:45:32.388Z,0.90
2023-01-19T08:47:59.651Z,0.95
2023-01-19T08:50:27.474Z,0.98
2023-01-19T08:52:57.602Z,1.00
2023-01-19T08:55:25.644Z,0.83
2023-01-19T08:57:53.239Z,0.85
2023-01-19T09:00:22.085Z,1.55
2023-01-19T09:02:49.602Z,0.90
2023-01-19T09:05:16.899Z,0.95
2023-01-19T09:07:46.520Z,0.63
2023-01-19T09:10:13.756Z,0.77
2023-01-19T09:12:41.223Z,0.80
2023-01-19T09:15:10.889Z,0.60
2023-01-19T09:17:38.379Z,0.70
2023-01-19T09:20:06.171Z,0.93
2023-01-19T09:22:33.510Z,1.15
2023-01-19T09:25:00.851Z,0.52
2023-01-19T09:27:28.147Z,0.75
2023-01-19T09:29:55.445Z,0.80
2023-01-19T09:32:23.175Z,0.63
2023-01-19T09:34:51.334Z,0.90
2023-01-19T09:37:18.674Z,0.80
2023-01-19T09:39:46.092Z,0.75
2023-01-19T09:42:34.331Z,0.85
2023-01-19T09:45:03.332Z,1.10
2023-01-19T09:47:31.574Z,1.00
2023-01-19T09:50:02.490Z,1.00
2023-01-19T09:52:32.071Z,1.00
2023-01-19T09:54:59.547Z,0.65
2023-01-19T09:57:27.745Z,0.73
2023-01-19T09:59:59.608Z,0.98
2023-01-19T10:02:46.130Z,1.40
2023-01-19T10:05:35.687Z,1.10
2023-01-19T10:08:10.908Z,1.42
2023-01-19T10:10:42.303Z,1.17
2023-01-19T10:13:21.778Z,1.10
2023-01-19T10:15:57.284Z,1.25
2023-01-19T10:18:47.399Z,0.88
2023-01-19T10:21:23.143Z,1.35
2023-01-19T10:23:59.641Z,0.83
2023-01-19T10:26:26.989Z,1.00
2023-01-19T10:28:56.743Z,0.90
2023-01-19T10:31:25.108Z,0.90
2023-01-19T10:33:53.223Z,1.23
2023-01-19T10:36:22.633Z,1.20
2023-01-19T10:38:50.061Z,1.20
2023-01-19T10:41:24.457Z,1.63
2023-01-19T10:43:59.445Z,1.00
2023-01-19T10:46:26.868Z,1.13
2023-01-19T10:48:54.978Z,1.20
2023-01-19T10:51:22.619Z,1.23
2023-01-19T10:53:59.287Z,1.17
2023-01-19T10:56:28.600Z,0.80
2023-01-19T10:58:56.183Z,2.05
2023-01-19T11:01:25.571Z,0.40
2023-01-19T11:03:54.109Z,0.70
2023-01-19T11:06:22.928Z,0.90
2023-01-19T11:08:51.789Z,0.80
2023-01-19T11:11:20.477Z,0.68
2023-01-19T11:14:03.148Z,1.17
2023-01-19T11:16:31.996Z,0.80
2023-01-19T11:19:02.181Z,0.90
2023-01-19T11:21:30.816Z,0.80
2023-01-19T11:23:59.968Z,0.80
2023-01-19T11:26:31.446Z,0.80
2023-01-19T11:28:59.604Z,0.70
2023-01-19T11:31:29.930Z,0.60
2023-01-19T11:33:58.851Z,0.60
2023-01-19T11:36:30.586Z,0.77
2023-01-19T11:38:58.834Z,0.60
2023-01-19T11:41:30.348Z,0.40
2023-01-19T11:43:58.878Z,0.50
2023-01-19T11:46:28.444Z,0.60
2023-01-19T11:49:02.099Z,0.60
2023-01-19T11:51:31.989Z,0.30
2023-01-19T11:53:59.380Z,0.45
2023-01-19T11:56:29.191Z,0.70
2023-01-19T11:58:56.666Z,0.50
2023-01-19T12:01:32.351Z,0.47
2023-01-19T12:04:02.283Z,0.50
2023-01-19T12:06:34.946Z,0.63
2023-01-19T12:09:09.673Z,0.60
2023-01-19T12:11:40.376Z,0.40
2023-01-19T12:14:14.738Z,0.50
2023-01-19T12:16:43.477Z,0.50
2023-01-19T12:19:19.035Z,0.75
2023-01-19T12:21:49.767Z,0.60
2023-01-19T12:24:18.762Z,0.98
2023-01-19T12:27:18.668Z,0.70
2023-01-19T12:29:46.683Z,0.60
2023-01-19T12:32:13.967Z,0.60
2023-01-19T12:34:46.739Z,0.65
2023-01-19T12:37:29.169Z,0.43
2023-01-19T12:39:57.615Z,0.70
2023-01-19T12:42:25.435Z,0.40
2023-01-19T12:45:06.271Z,0.60
2023-01-19T12:47:33.918Z,0.85
2023-01-19T12:50:07.176Z,0.50
2023-01-19T12:52:47.755Z,0.70
2023-01-19T12:55:15.133Z,0.50
2023-01-19T12:57:48.637Z,0.88
2023-01-19T13:00:24.684Z,0.90
2023-01-19T13:02:52.150Z,0.68
2023-01-19T13:05:22.380Z,0.70
2023-01-19T13:08:12.632Z,0.40
2023-01-19T13:10:58.864Z,0.52
2023-01-19T13:13:33.760Z,0.70
2023-01-19T13:16:21.333Z,0.60
2023-01-19T13:18:59.916Z,0.50
2023-01-19T13:21:28.740Z,0.60
2023-01-19T13:23:56.983Z,0.40
2023-01-19T13:26:29.149Z,0.57
2023-01-19T13:28:57.700Z,0.60
2023-01-19T13:31:25.810Z,0.60
2023-01-19T13:33:54.678Z,0.60
2023-01-19T13:36:26.645Z,0.73
2023-01-19T13:38:54.516Z,0.70
2023-01-19T13:41:24.514Z,0.55
2023-01-19T13:43:55.883Z,0.60
2023-01-19T13:46:25.291Z,0.50
2023-01-19T13:49:00.763Z,0.77
2023-01-19T13:51:28.084Z,0.85
2023-01-19T13:53:56.152Z,0.70
2023-01-19T13:56:24.516Z,0.68
2023-01-19T13:59:02.241Z,0.50
2023-01-19T14:01:31.355Z,0.60
2023-01-19T14:03:59.098Z,0.60
2023-01-19T14:06:32.694Z,0.73
2023-01-19T14:09:10.213Z,0.60
2023-01-19T14:11:37.609Z,0.67
2023-01-19T14:14:05.048Z,0.88
2023-01-19T14:16:32.460Z,0.80
2023-01-19T14:19:00.653Z,0.95
2023-01-19T14:21:37.730Z,0.50
2023-01-19T14:24:08.358Z,0.67
2023-01-19T14:26:38.822Z,0.50
2023-01-19T14:29:24.935Z,0.60
2023-01-19T14:31:52.941Z,0.70
2023-01-19T14:34:44.865Z,0.57
2023-01-19T14:37:17.097Z,0.70
2023-01-19T14:39:46.355Z,0.98
2023-01-19T14:42:17.530Z,1.55
2023-01-19T14:44:48.243Z,0.68
2023-01-19T14:47:26.432Z,1.45
2023-01-19T14:49:55.360Z,0.80
2023-01-19T14:52:25.849Z,0.50
2023-01-19T14:54:53.167Z,0.70
2023-01-19T14:57:20.543Z,0.45
2023-01-19T14:59:49.745Z,0.70
2023-01-19T15:02:20.692Z,0.80
2023-01-19T15:04:48.479Z,0.60
2023-01-19T15:07:18.239Z,0.70
2023-01-19T15:09:46.092Z,0.80
2023-01-19T15:12:17.382Z,0.70
2023-01-19T15:14:45.334Z,0.50
2023-01-19T15:17:25.772Z,0.80
2023-01-19T15:19:57.591Z,0.70
2023-01-19T15:22:28.493Z,0.60
2023-01-19T15:25:00.106Z,0.50
2023-01-19T15:27:27.821Z,0.60
2023-01-19T15:29:55.332Z,0.50
2023-01-19T15:32:22.638Z,0.80
2023-01-19T15:34:49.846Z,0.80
2023-01-19T15:37:17.179Z,0.70
2023-01-19T15:39:44.516Z,0.60
2023-01-19T15:42:15.677Z,0.98
2023-01-19T15:44:43.177Z,1.10
2023-01-19T15:47:11.167Z,0.68
2023-01-19T15:49:38.438Z,0.88
2023-01-19T15:52:05.685Z,1.57
2023-01-19T15:54:32.886Z,1.70
2023-01-19T15:57:01.217Z,1.33
2023-01-19T15:59:28.615Z,1.23
2023-01-19T16:01:55.992Z,2.75
2023-01-19T16:04:23.428Z,2.90
2023-01-19T16:06:50.854Z,2.30
2023-01-19T16:09:20.293Z,3.47
2023-01-19T16:11:47.547Z,2.10
2023-01-19T16:14:17.356Z,1.60
2023-01-19T16:16:48.598Z,1.60
2023-01-19T16:19:16.108Z,1.60
2023-01-19T16:21:44.362Z,1.60
2023-01-19T16:24:11.731Z,1.60
2023-01-19T16:26:39.187Z,1.75
2023-01-19T16:29:10.954Z,1.17
2023-01-19T16:31:42.546Z,1.08
2023-01-19T16:34:10.533Z,1.30
2023-01-19T16:36:40.485Z,0.93
2023-01-19T16:39:09.345Z,1.08
2023-01-19T16:41:36.970Z,1.17
2023-01-19T16:44:04.673Z,1.27
2023-01-19T16:46:34.619Z,1.38
2023-01-19T16:49:03.183Z,4.22
2023-01-19T16:51:30.831Z,2.85
2023-01-19T16:53:58.326Z,1.73
2023-01-19T16:56:25.458Z,2.50
2023-01-19T16:58:56.256Z,2.30
2023-01-19T17:01:23.982Z,2.10
2023-01-19T17:03:51.309Z,2.00
2023-01-19T17:06:20.396Z,2.00
2023-01-19T17:08:48.293Z,2.33
2023-01-19T17:11:20.597Z,2.45
2023-01-19T17:13:48.832Z,2.38
2023-01-19T17:16:16.189Z,2.00
2023-01-19T17:18:43.536Z,1.77
2023-01-19T17:21:11.549Z,2.10
2023-01-19T17:23:43.076Z,2.00
2023-01-19T17:26:10.402Z,1.70
2023-01-19T17:28:37.792Z,2.22
2023-01-19T17:31:12.218Z,1.60
2023-01-19T17:33:39.982Z,1.50
2023-01-19T17:36:08.872Z,1.80
2023-01-19T17:38:36.774Z,3.00
2023-01-19T17:41:12.476Z,1.90
2023-01-19T17:43:39.787Z,1.90
2023-01-19T17:46:07.174Z,2.20
2023-01-19T17:48:34.339Z,1.90
2023-01-19T17:51:06.619Z,1.90
2023-01-19T17:53:34.694Z,4.05
2023-01-19T17:56:05.818Z,3.20
2023-01-19T17:58:33.396Z,2.80
2023-01-19T18:01:08.164Z,2.38
2023-01-19T18:03:35.549Z,1.90
2023-01-19T18:06:03.064Z,1.90
2023-01-19T18:08:30.422Z,2.40
2023-01-19T18:10:58.741Z,2.53
2023-01-19T18:13:26.423Z,1.73
2023-01-19T18:15:58.742Z,2.05
2023-01-19T18:18:26.163Z,1.65
2023-01-19T18:20:53.556Z,1.50
2023-01-19T18:23:20.878Z,1.30
2023-01-19T18:25:50.885Z,1.85
2023-01-19T18:28:19.527Z,1.40
2023-01-19T18:30:46.912Z,1.23
2023-01-19T18:33:14.382Z,0.90
2023-01-19T18:35:41.608Z,1.15
2023-01-19T18:38:08.860Z,1.40
2023-01-19T18:40:36.118Z,1.40
2023-01-19T18:43:03.324Z,1.67
2023-01-19T18:45:30.539Z,1.87
2023-01-19T18:47:57.979Z,2.10
2023-01-19T18:50:25.358Z,2.30
2023-01-19T18:52:53.035Z,1.63
2023-01-19T18:55:20.346Z,1.90
2023-01-19T18:57:47.634Z,2.40
2023-01-19T19:00:15.369Z,3.05
2023-01-19T19:02:42.792Z,1.83
2023-01-19T19:05:10.054Z,2.03
2023-01-19T19:07:37.874Z,1.90
2023-01-19T19:10:05.551Z,1.70
2023-01-19T19:12:32.680Z,1.58
2023-01-19T19:14:59.817Z,1.50
2023-01-19T19:17:27.173Z,1.00
2023-01-19T19:19:54.505Z,0.90
2023-01-19T19:22:22.840Z,0.50
2023-01-19T19:24:50.969Z,0.50
2023-01-19T19:27:18.288Z,0.60
2023-01-19T19:30:03.856Z,0.63
2023-01-19T19:32:31.166Z,0.55
2023-01-19T19:34:59.161Z,0.60
2023-01-19T19:37:26.471Z,5.50
2023-01-19T19:39:55.754Z,2.55
2023-01-19T19:42:22.957Z,1.55
2023-01-19T19:44:50.293Z,1.20
2023-01-19T19:47:17.661Z,1.07
2023-01-19T19:49:45.133Z,1.20
2023-01-19T19:52:12.575Z,1.10
2023-01-19T19:54:40.641Z,1.13
2023-01-19T19:57:07.970Z,1.70
2023-01-19T19:59:35.203Z,2.20
2023-01-19T20:02:02.456Z,1.20
2023-01-19T20:04:29.752Z,1.40
2023-01-19T20:06:59.329Z,1.20
2023-01-19T20:09:26.623Z,1.10
2023-01-19T20:11:53.799Z,1.10
2023-01-19T20:14:22.646Z,1.08
2023-01-19T20:16:50.174Z,1.10
2023-01-19T20:19:18.463Z,0.80
2023-01-19T20:21:45.918Z,1.58
2023-01-19T20:24:20.471Z,1.40
2023-01-19T20:26:52.471Z,1.65
2023-01-19T20:29:20.182Z,1.50
2023-01-19T20:31:49.754Z,1.60
2023-01-19T20:34:18.620Z,1.50
2023-01-19T20:36:49.759Z,1.73
2023-01-19T20:39:17.866Z,1.48
2023-01-19T20:41:45.760Z,1.52
2023-01-19T20:44:14.168Z,3.63
2023-01-19T20:46:41.727Z,3.95
2023-01-19T20:49:08.931Z,4.20
2023-01-19T20:51:37.613Z,3.38
2023-01-19T20:54:05.402Z,3.28
2023-01-19T20:56:32.731Z,2.35
2023-01-19T20:59:00.195Z,2.78
2023-01-19T21:01:27.620Z,2.60
2023-01-19T21:03:55.006Z,2.20
2023-01-19T21:06:22.676Z,1.92
2023-01-19T21:08:50.173Z,1.90
2023-01-19T21:11:21.415Z,2.33
2023-01-19T21:13:50.679Z,3.47
2023-01-19T21:16:18.259Z,3.47
2023-01-19T21:18:45.591Z,3.40
2023-01-19T21:21:28.972Z,2.97
2023-01-19T21:23:58.613Z,4.13
2023-01-19T21:26:25.942Z,4.40
2023-01-19T21:28:53.310Z,3.47
2023-01-19T21:31:22.903Z,2.40
2023-01-19T21:33:53.641Z,2.30
2023-01-19T21:36:22.543Z,2.97
2023-01-19T21:38:51.612Z,3.50
2023-01-19T21:41:19.143Z,3.05
2023-01-19T21:43:46.515Z,3.63
2023-01-19T21:46:21.174Z,4.82
2023-01-19T21:48:48.474Z,4.72
2023-01-19T21:51:15.890Z,4.63
2023-01-19T21:53:43.232Z,4.45
2023-01-19T21:56:10.974Z,3.50
2023-01-19T21:58:38.742Z,3.67
2023-01-19T22:01:09.840Z,4.03
2023-01-19T22:03:37.163Z,4.30
2023-01-19T22:06:08.798Z,4.45
2023-01-19T22:08:36.160Z,3.67
2023-01-19T22:11:07.315Z,4.28
2023-01-19T22:13:37.957Z,3.28
2023-01-19T22:16:08.973Z,3.27
2023-01-19T22:18:36.735Z,3.10
2023-01-19T22:21:10.145Z,3.38
2023-01-19T22:23:37.721Z,3.50
2023-01-19T22:26:05.440Z,3.10
2023-01-19T22:28:32.805Z,3.03
2023-01-19T22:31:19.205Z,2.60
2023-01-19T22:33:46.580Z,3.00
2023-01-19T22:36:15.976Z,2.97
2023-01-19T22:38:43.882Z,3.35
2023-01-19T22:41:22.227Z,2.70
2023-01-19T22:43:50.050Z,2.88
2023-01-19T22:46:20.961Z,2.80
2023-01-19T22:48:49.393Z,3.00
2023-01-19T22:51:17.346Z,2.90
2023-01-19T22:53:44.561Z,2.87
2023-01-19T22:56:16.550Z,2.83
2023-01-19T22:58:44.313Z,3.03
2023-01-19T23:01:12.669Z,3.00
2023-01-19T23:03:40.150Z,2.83
2023-01-19T23:06:08.345Z,2.93
2023-01-19T23:08:35.936Z,3.17
2023-01-19T23:11:10.495Z,3.08
2023-01-19T23:13:37.774Z,3.03
2023-01-19T23:16:05.409Z,3.42
2023-01-19T23:18:32.947Z,3.33
2023-01-19T23:21:07.463Z,3.70
2023-01-19T23:23:34.941Z,3.15
2023-01-19T23:26:07.051Z,3.10
2023-01-19T23:28:34.683Z,3.30
2023-01-19T23:31:02.082Z,3.17
2023-01-19T23:33:29.525Z,3.13
2023-01-19T23:35:56.895Z,3.20
2023-01-19T23:38:24.233Z,3.13
2023-01-19T23:40:51.441Z,3.47
2023-01-19T23:43:18.646Z,3.37
2023-01-19T23:45:45.970Z,2.90
2023-01-19T23:48:13.322Z,3.47
2023-01-19T23:50:41.012Z,3.00
2023-01-19T23:53:08.301Z,3.00
2023-01-19T23:55:35.499Z,2.97
2023-01-19T23:58:02.856Z,3.00
